sensor_id;sensor_type;location;lat;lon;timestamp;pressure;altitude;pressure_sealevel;temperature;humidity
69173;BME280;56280;49.662;8.408;2023-03-19T00:01:05;100399.31;;;13.11;56.94
69173;BME280;56280;49.662;8.408;2023-03-19T00:03:31;100380.25;;;13.06;56.85
69173;BME280;56280;49.662;8.408;2023-03-19T00:05:57;100380.81;;;13.00;56.91
69173;BME280;56280;49.662;8.408;2023-03-19T00:08:22;100382.78;;;12.98;57.36
69173;BME280;56280;49.662;8.408;2023-03-19T00:10:48;100377.03;;;13.03;57.46
69173;BME280;56280;49.662;8.408;2023-03-19T00:13:13;100390.91;;;13.06;58.40
69173;BME280;56280;49.662;8.408;2023-03-19T00:15:38;100391.06;;;13.05;58.22
69173;BME280;56280;49.662;8.408;2023-03-19T00:18:04;100390.38;;;13.03;58.08
69173;BME280;56280;49.662;8.408;2023-03-19T00:20:30;100393.47;;;12.98;58.45
69173;BME280;56280;49.662;8.408;2023-03-19T00:22:56;100394.72;;;12.94;58.02
69173;BME280;56280;49.662;8.408;2023-03-19T00:25:21;100345.94;;;12.64;57.66
69173;BME280;56280;49.662;8.408;2023-03-19T00:27:47;100386.72;;;12.84;57.54
69173;BME280;56280;49.662;8.408;2023-03-19T00:30:12;100399.22;;;12.93;57.19
69173;BME280;56280;49.662;8.408;2023-03-19T00:32:39;100398.78;;;12.39;60.10
69173;BME280;56280;49.662;8.408;2023-03-19T00:35:05;100396.63;;;11.42;62.46
69173;BME280;56280;49.662;8.408;2023-03-19T00:37:31;100380.03;;;11.60;62.18
69173;BME280;56280;49.662;8.408;2023-03-19T00:39:56;100398.63;;;11.91;61.67
69173;BME280;56280;49.662;8.408;2023-03-19T00:42:22;100404.63;;;11.83;62.33
69173;BME280;56280;49.662;8.408;2023-03-19T00:44:47;100413.59;;;12.13;61.19
69173;BME280;56280;49.662;8.408;2023-03-19T00:47:12;100411.34;;;12.08;61.86
69173;BME280;56280;49.662;8.408;2023-03-19T00:49:38;100353.34;;;11.40;63.02
69173;BME280;56280;49.662;8.408;2023-03-19T00:52:03;100392.75;;;11.87;62.25
69173;BME280;56280;49.662;8.408;2023-03-19T00:54:28;100395.94;;;12.12;61.45
69173;BME280;56280;49.662;8.408;2023-03-19T00:56:56;100409.81;;;12.25;60.65
69173;BME280;56280;49.662;8.408;2023-03-19T00:59:21;100395.66;;;12.25;60.42
69173;BME280;56280;49.662;8.408;2023-03-19T01:01:46;100389.63;;;12.13;61.06
69173;BME280;56280;49.662;8.408;2023-03-19T01:04:12;100403.09;;;12.11;61.65
69173;BME280;56280;49.662;8.408;2023-03-19T01:06:38;100383.44;;;12.12;60.73
69173;BME280;56280;49.662;8.408;2023-03-19T01:09:04;100402.00;;;12.24;61.07
69173;BME280;56280;49.662;8.408;2023-03-19T01:11:29;100366.09;;;12.18;60.32
69173;BME280;56280;49.662;8.408;2023-03-19T01:13:55;100392.59;;;12.29;60.41
69173;BME280;56280;49.662;8.408;2023-03-19T01:16:20;100390.09;;;12.37;59.91
69173;BME280;56280;49.662;8.408;2023-03-19T01:18:45;100380.97;;;12.30;60.25
69173;BME280;56280;49.662;8.408;2023-03-19T01:21:11;100368.16;;;11.95;61.55
69173;BME280;56280;49.662;8.408;2023-03-19T01:23:36;100393.81;;;12.06;61.83
69173;BME280;56280;49.662;8.408;2023-03-19T01:26:02;100350.28;;;11.85;60.97
69173;BME280;56280;49.662;8.408;2023-03-19T01:28:27;100395.47;;;11.97;61.44
69173;BME280;56280;49.662;8.408;2023-03-19T01:30:57;100371.25;;;11.69;61.35
69173;BME280;56280;49.662;8.408;2023-03-19T01:33:22;100373.91;;;11.69;61.98
69173;BME280;56280;49.662;8.408;2023-03-19T01:35:48;100374.22;;;11.76;61.43
69173;BME280;56280;49.662;8.408;2023-03-19T01:38:13;100380.59;;;11.63;62.07
69173;BME280;56280;49.662;8.408;2023-03-19T01:40:47;100396.13;;;11.58;62.45
69173;BME280;56280;49.662;8.408;2023-03-19T01:43:19;100409.72;;;11.34;63.39
69173;BME280;56280;49.662;8.408;2023-03-19T01:45:46;100402.28;;;11.59;63.00
69173;BME280;56280;49.662;8.408;2023-03-19T01:51:00;100384.66;;;11.58;61.66
69173;BME280;56280;49.662;8.408;2023-03-19T01:53:29;100398.00;;;11.67;61.60
69173;BME280;56280;49.662;8.408;2023-03-19T01:56:02;100389.75;;;11.71;61.72
69173;BME280;56280;49.662;8.408;2023-03-19T01:58:28;100385.13;;;11.73;61.08
69173;BME280;56280;49.662;8.408;2023-03-19T02:00:53;100387.09;;;11.71;60.74
69173;BME280;56280;49.662;8.408;2023-03-19T02:03:19;100393.97;;;11.83;60.33
69173;BME280;56280;49.662;8.408;2023-03-19T02:05:45;100394.22;;;11.70;61.28
69173;BME280;56280;49.662;8.408;2023-03-19T02:08:15;100353.31;;;11.30;61.91
69173;BME280;56280;49.662;8.408;2023-03-19T02:10:42;100368.75;;;11.16;62.82
69173;BME280;56280;49.662;8.408;2023-03-19T02:13:08;100414.59;;;11.50;62.05
69173;BME280;56280;49.662;8.408;2023-03-19T02:15:33;100366.22;;;11.35;61.99
69173;BME280;56280;49.662;8.408;2023-03-19T02:17:59;100418.53;;;11.56;61.33
69173;BME280;56280;49.662;8.408;2023-03-19T02:20:31;100410.22;;;11.49;62.04
69173;BME280;56280;49.662;8.408;2023-03-19T02:23:08;100406.50;;;11.61;61.84
69173;BME280;56280;49.662;8.408;2023-03-19T02:26:06;100414.50;;;11.61;61.67
69173;BME280;56280;49.662;8.408;2023-03-19T02:28:33;100407.47;;;11.60;61.76
69173;BME280;56280;49.662;8.408;2023-03-19T02:30:59;100385.50;;;11.27;62.12
69173;BME280;56280;49.662;8.408;2023-03-19T02:33:25;100390.28;;;11.34;61.80
69173;BME280;56280;49.662;8.408;2023-03-19T02:35:51;100383.00;;;11.36;62.00
69173;BME280;56280;49.662;8.408;2023-03-19T02:38:17;100415.91;;;11.65;61.24
69173;BME280;56280;49.662;8.408;2023-03-19T02:40:51;100405.56;;;11.62;61.62
69173;BME280;56280;49.662;8.408;2023-03-19T02:43:20;100406.69;;;11.70;62.03
69173;BME280;56280;49.662;8.408;2023-03-19T02:45:45;100400.81;;;11.66;61.84
69173;BME280;56280;49.662;8.408;2023-03-19T02:48:11;100423.88;;;11.65;62.17
69173;BME280;56280;49.662;8.408;2023-03-19T02:50:36;100377.13;;;11.11;63.20
69173;BME280;56280;49.662;8.408;2023-03-19T02:53:01;100410.81;;;11.31;63.28
69173;BME280;56280;49.662;8.408;2023-03-19T02:55:27;100408.81;;;11.45;63.10
69173;BME280;56280;49.662;8.408;2023-03-19T02:57:52;100413.97;;;11.37;62.95
69173;BME280;56280;49.662;8.408;2023-03-19T03:00:18;100403.84;;;11.30;62.73
69173;BME280;56280;49.662;8.408;2023-03-19T03:02:45;100427.63;;;11.53;62.20
69173;BME280;56280;49.662;8.408;2023-03-19T03:05:10;100405.56;;;11.62;61.82
69173;BME280;56280;49.662;8.408;2023-03-19T03:07:36;100388.25;;;11.47;61.78
69173;BME280;56280;49.662;8.408;2023-03-19T03:10:02;100397.50;;;11.53;61.88
69173;BME280;56280;49.662;8.408;2023-03-19T03:12:27;100416.97;;;11.53;61.62
69173;BME280;56280;49.662;8.408;2023-03-19T03:14:53;100386.97;;;11.51;61.44
69173;BME280;56280;49.662;8.408;2023-03-19T03:17:18;100418.38;;;11.57;60.81
69173;BME280;56280;49.662;8.408;2023-03-19T03:19:44;100412.75;;;11.50;60.60
69173;BME280;56280;49.662;8.408;2023-03-19T03:22:09;100423.41;;;11.29;60.91
69173;BME280;56280;49.662;8.408;2023-03-19T03:24:35;100431.84;;;11.13;62.00
69173;BME280;56280;49.662;8.408;2023-03-19T03:27:00;100416.94;;;11.22;61.63
69173;BME280;56280;49.662;8.408;2023-03-19T03:29:26;100401.69;;;11.24;61.00
69173;BME280;56280;49.662;8.408;2023-03-19T03:31:51;100422.72;;;11.27;61.26
69173;BME280;56280;49.662;8.408;2023-03-19T03:34:16;100427.13;;;11.38;61.09
69173;BME280;56280;49.662;8.408;2023-03-19T03:36:42;100426.91;;;11.30;61.56
69173;BME280;56280;49.662;8.408;2023-03-19T03:39:07;100412.56;;;11.42;60.57
69173;BME280;56280;49.662;8.408;2023-03-19T03:41:32;100412.88;;;11.49;60.45
69173;BME280;56280;49.662;8.408;2023-03-19T03:43:58;100424.44;;;11.59;60.99
69173;BME280;56280;49.662;8.408;2023-03-19T03:46:23;100437.09;;;11.77;60.64
69173;BME280;56280;49.662;8.408;2023-03-19T03:48:49;100426.63;;;11.75;60.05
69173;BME280;56280;49.662;8.408;2023-03-19T03:51:16;100434.63;;;11.85;59.94
69173;BME280;56280;49.662;8.408;2023-03-19T03:53:41;100446.34;;;11.73;60.36
69173;BME280;56280;49.662;8.408;2023-03-19T03:56:07;100448.88;;;11.74;60.73
69173;BME280;56280;49.662;8.408;2023-03-19T03:58:32;100420.03;;;11.48;61.01
69173;BME280;56280;49.662;8.408;2023-03-19T04:00:57;100457.06;;;11.61;61.59
69173;BME280;56280;49.662;8.408;2023-03-19T04:03:23;100402.31;;;11.38;61.40
69173;BME280;56280;49.662;8.408;2023-03-19T04:05:49;100321.31;;;10.90;61.72
69173;BME280;56280;49.662;8.408;2023-03-19T04:08:14;100430.72;;;11.58;61.60
69173;BME280;56280;49.662;8.408;2023-03-19T04:10:41;100439.59;;;11.68;61.43
69173;BME280;56280;49.662;8.408;2023-03-19T04:13:07;100436.66;;;11.72;61.13
69173;BME280;56280;49.662;8.408;2023-03-19T04:15:33;100449.34;;;11.89;60.92
69173;BME280;56280;49.662;8.408;2023-03-19T04:17:59;100433.25;;;11.91;60.86
69173;BME280;56280;49.662;8.408;2023-03-19T04:20:24;100451.13;;;12.00;60.29
69173;BME280;56280;49.662;8.408;2023-03-19T04:22:49;100434.84;;;11.93;60.30
69173;BME280;56280;49.662;8.408;2023-03-19T04:25:15;100449.94;;;11.93;60.07
69173;BME280;56280;49.662;8.408;2023-03-19T04:27:41;100445.81;;;11.79;60.76
69173;BME280;56280;49.662;8.408;2023-03-19T04:30:07;100443.50;;;11.64;61.35
69173;BME280;56280;49.662;8.408;2023-03-19T04:32:37;100456.34;;;11.80;60.79
69173;BME280;56280;49.662;8.408;2023-03-19T04:35:03;100492.88;;;11.99;61.29
69173;BME280;56280;49.662;8.408;2023-03-19T04:37:38;100502.00;;;12.07;60.53
69173;BME280;56280;49.662;8.408;2023-03-19T04:40:14;100454.75;;;11.78;61.01
69173;BME280;56280;49.662;8.408;2023-03-19T04:42:41;100449.22;;;11.60;62.12
69173;BME280;56280;49.662;8.408;2023-03-19T04:45:09;100443.63;;;11.63;61.21
69173;BME280;56280;49.662;8.408;2023-03-19T04:47:34;100475.84;;;11.91;61.22
69173;BME280;56280;49.662;8.408;2023-03-19T04:49:59;100464.81;;;11.95;61.14
69173;BME280;56280;49.662;8.408;2023-03-19T04:52:25;100468.19;;;11.97;61.29
69173;BME280;56280;49.662;8.408;2023-03-19T04:54:50;100489.94;;;12.02;61.62
69173;BME280;56280;49.662;8.408;2023-03-19T04:57:15;100492.72;;;12.01;61.73
69173;BME280;56280;49.662;8.408;2023-03-19T04:59:40;100482.63;;;11.74;62.01
69173;BME280;56280;49.662;8.408;2023-03-19T05:02:06;100468.44;;;11.42;62.72
69173;BME280;56280;49.662;8.408;2023-03-19T05:04:31;100474.41;;;11.35;63.70
69173;BME280;56280;49.662;8.408;2023-03-19T05:06:57;100459.03;;;11.59;62.56
69173;BME280;56280;49.662;8.408;2023-03-19T05:09:22;100482.81;;;11.82;62.05
69173;BME280;56280;49.662;8.408;2023-03-19T05:11:47;100480.16;;;11.82;62.31
69173;BME280;56280;49.662;8.408;2023-03-19T05:14:13;100434.81;;;11.62;61.53
69173;BME280;56280;49.662;8.408;2023-03-19T05:16:38;100501.72;;;11.79;62.37
69173;BME280;56280;49.662;8.408;2023-03-19T05:19:03;100485.47;;;11.82;62.48
69173;BME280;56280;49.662;8.408;2023-03-19T05:21:29;100505.06;;;12.02;61.92
69173;BME280;56280;49.662;8.408;2023-03-19T05:23:54;100475.00;;;11.90;61.74
69173;BME280;56280;49.662;8.408;2023-03-19T05:26:21;100477.44;;;11.93;61.67
69173;BME280;56280;49.662;8.408;2023-03-19T05:28:46;100468.38;;;11.84;61.86
69173;BME280;56280;49.662;8.408;2023-03-19T05:31:12;100496.53;;;12.08;61.41
69173;BME280;56280;49.662;8.408;2023-03-19T05:33:37;100490.13;;;12.11;61.38
69173;BME280;56280;49.662;8.408;2023-03-19T05:36:03;100497.38;;;12.09;61.75
69173;BME280;56280;49.662;8.408;2023-03-19T05:38:29;100505.47;;;11.55;63.65
69173;BME280;56280;49.662;8.408;2023-03-19T05:40:54;100481.28;;;11.37;63.49
69173;BME280;56280;49.662;8.408;2023-03-19T05:43:19;100509.91;;;11.66;63.13
69173;BME280;56280;49.662;8.408;2023-03-19T05:45:49;100500.78;;;11.68;62.76
69173;BME280;56280;49.662;8.408;2023-03-19T05:48:15;100512.75;;;11.74;62.91
69173;BME280;56280;49.662;8.408;2023-03-19T05:50:41;100514.75;;;11.40;64.26
69173;BME280;56280;49.662;8.408;2023-03-19T05:53:07;100529.09;;;11.27;65.49
69173;BME280;56280;49.662;8.408;2023-03-19T05:55:32;100506.88;;;11.17;65.08
69173;BME280;56280;49.662;8.408;2023-03-19T05:57:57;100524.75;;;11.47;64.80
69173;BME280;56280;49.662;8.408;2023-03-19T06:00:23;100529.16;;;11.58;63.92
69173;BME280;56280;49.662;8.408;2023-03-19T06:02:48;100482.13;;;11.38;64.00
69173;BME280;56280;49.662;8.408;2023-03-19T06:05:13;100505.28;;;11.47;63.64
69173;BME280;56280;49.662;8.408;2023-03-19T06:07:39;100443.84;;;11.08;63.98
69173;BME280;56280;49.662;8.408;2023-03-19T06:10:04;100496.41;;;11.58;63.84
69173;BME280;56280;49.662;8.408;2023-03-19T06:12:30;100405.00;;;11.17;63.43
69173;BME280;56280;49.662;8.408;2023-03-19T06:14:55;100513.63;;;11.84;63.02
69173;BME280;56280;49.662;8.408;2023-03-19T06:17:21;100524.84;;;11.99;62.73
69173;BME280;56280;49.662;8.408;2023-03-19T06:19:46;100456.50;;;11.58;62.04
69173;BME280;56280;49.662;8.408;2023-03-19T06:22:12;100524.31;;;12.15;62.12
69173;BME280;56280;49.662;8.408;2023-03-19T06:24:37;100519.41;;;11.90;62.57
69173;BME280;56280;49.662;8.408;2023-03-19T06:27:02;100528.72;;;11.95;62.57
69173;BME280;56280;49.662;8.408;2023-03-19T06:29:27;100548.78;;;11.99;63.05
69173;BME280;56280;49.662;8.408;2023-03-19T06:31:59;100503.13;;;11.83;62.63
69173;BME280;56280;49.662;8.408;2023-03-19T06:34:24;100548.50;;;12.24;62.93
69173;BME280;56280;49.662;8.408;2023-03-19T06:36:50;100541.34;;;12.24;62.72
69173;BME280;56280;49.662;8.408;2023-03-19T06:39:17;100521.00;;;12.23;61.70
69173;BME280;56280;49.662;8.408;2023-03-19T06:41:43;100514.81;;;12.22;61.50
69173;BME280;56280;49.662;8.408;2023-03-19T06:44:08;100526.94;;;12.36;61.64
69173;BME280;56280;49.662;8.408;2023-03-19T06:46:33;100545.78;;;12.54;61.74
69173;BME280;56280;49.662;8.408;2023-03-19T06:48:59;100544.56;;;12.28;62.71
69173;BME280;56280;49.662;8.408;2023-03-19T06:51:24;100535.91;;;12.35;62.46
69173;BME280;56280;49.662;8.408;2023-03-19T06:53:52;100536.19;;;12.42;61.72
69173;BME280;56280;49.662;8.408;2023-03-19T06:56:17;100539.16;;;12.49;61.60
69173;BME280;56280;49.662;8.408;2023-03-19T06:58:45;100539.16;;;12.49;61.46
69173;BME280;56280;49.662;8.408;2023-03-19T07:01:10;100567.28;;;12.72;60.97
69173;BME280;56280;49.662;8.408;2023-03-19T07:03:36;100570.50;;;12.66;61.03
69173;BME280;56280;49.662;8.408;2023-03-19T07:06:01;100556.53;;;12.33;61.91
69173;BME280;56280;49.662;8.408;2023-03-19T07:08:26;100543.47;;;12.30;62.13
69173;BME280;56280;49.662;8.408;2023-03-19T07:11:02;100560.63;;;12.47;61.89
69173;BME280;56280;49.662;8.408;2023-03-19T07:13:28;100577.06;;;12.21;62.42
69173;BME280;56280;49.662;8.408;2023-03-19T07:15:53;100559.56;;;11.98;63.26
69173;BME280;56280;49.662;8.408;2023-03-19T07:18:18;100547.75;;;12.21;62.06
69173;BME280;56280;49.662;8.408;2023-03-19T07:20:44;100546.28;;;12.38;62.35
69173;BME280;56280;49.662;8.408;2023-03-19T07:23:09;100562.41;;;12.37;62.52
69173;BME280;56280;49.662;8.408;2023-03-19T07:25:35;100557.81;;;12.49;62.17
69173;BME280;56280;49.662;8.408;2023-03-19T07:28:01;100572.56;;;12.53;62.42
69173;BME280;56280;49.662;8.408;2023-03-19T07:30:26;100550.97;;;12.46;61.99
69173;BME280;56280;49.662;8.408;2023-03-19T07:32:51;100564.19;;;12.57;61.78
69173;BME280;56280;49.662;8.408;2023-03-19T07:35:17;100570.78;;;12.63;61.79
69173;BME280;56280;49.662;8.408;2023-03-19T07:37:42;100565.63;;;12.81;61.39
69173;BME280;56280;49.662;8.408;2023-03-19T07:40:08;100589.88;;;12.78;62.45
69173;BME280;56280;49.662;8.408;2023-03-19T07:42:34;100551.84;;;12.26;63.22
69173;BME280;56280;49.662;8.408;2023-03-19T07:45:01;100597.03;;;12.37;63.82
69173;BME280;56280;49.662;8.408;2023-03-19T07:47:26;100595.53;;;12.44;63.82
69173;BME280;56280;49.662;8.408;2023-03-19T07:49:51;100570.75;;;12.53;63.56
69173;BME280;56280;49.662;8.408;2023-03-19T07:52:17;100569.97;;;12.72;62.92
69173;BME280;56280;49.662;8.408;2023-03-19T07:54:43;100585.16;;;12.91;61.68
69173;BME280;56280;49.662;8.408;2023-03-19T07:57:08;100571.44;;;12.96;62.07
69173;BME280;56280;49.662;8.408;2023-03-19T07:59:33;100555.44;;;12.96;61.51
69173;BME280;56280;49.662;8.408;2023-03-19T08:01:59;100588.75;;;13.50;60.94
69173;BME280;56280;49.662;8.408;2023-03-19T08:04:24;100580.19;;;13.47;60.21
69173;BME280;56280;49.662;8.408;2023-03-19T08:06:49;100587.47;;;13.64;60.13
69173;BME280;56280;49.662;8.408;2023-03-19T08:09:15;100563.72;;;13.32;60.27
69173;BME280;56280;49.662;8.408;2023-03-19T08:11:40;100569.91;;;13.52;60.22
69173;BME280;56280;49.662;8.408;2023-03-19T08:14:05;100568.75;;;13.84;59.60
69173;BME280;56280;49.662;8.408;2023-03-19T08:16:31;100550.59;;;13.97;58.90
69173;BME280;56280;49.662;8.408;2023-03-19T08:18:56;100554.94;;;13.98;58.90
69173;BME280;56280;49.662;8.408;2023-03-19T08:21:22;100583.81;;;14.32;59.21
69173;BME280;56280;49.662;8.408;2023-03-19T08:23:47;100584.88;;;14.49;58.63
69173;BME280;56280;49.662;8.408;2023-03-19T08:26:12;100570.03;;;14.65;58.30
69173;BME280;56280;49.662;8.408;2023-03-19T08:28:38;100574.13;;;14.69;57.75
69173;BME280;56280;49.662;8.408;2023-03-19T08:31:08;100560.22;;;14.55;57.94
69173;BME280;56280;49.662;8.408;2023-03-19T08:33:34;100562.88;;;14.65;57.49
69173;BME280;56280;49.662;8.408;2023-03-19T08:36:10;100573.16;;;14.88;57.74
69173;BME280;56280;49.662;8.408;2023-03-19T08:38:37;100562.31;;;14.89;58.11
69173;BME280;56280;49.662;8.408;2023-03-19T08:41:05;100575.72;;;15.25;57.68
69173;BME280;56280;49.662;8.408;2023-03-19T08:43:35;100593.91;;;15.22;57.94
69173;BME280;56280;49.662;8.408;2023-03-19T08:46:04;100589.09;;;15.25;58.33
69173;BME280;56280;49.662;8.408;2023-03-19T08:48:30;100585.78;;;15.67;57.02
69173;BME280;56280;49.662;8.408;2023-03-19T08:50:58;100590.38;;;15.75;57.30
69173;BME280;56280;49.662;8.408;2023-03-19T08:53:25;100554.69;;;15.93;56.16
69173;BME280;56280;49.662;8.408;2023-03-19T08:55:52;100586.31;;;15.89;54.84
69173;BME280;56280;49.662;8.408;2023-03-19T08:58:21;100590.91;;;15.79;54.84
69173;BME280;56280;49.662;8.408;2023-03-19T09:00:46;100592.41;;;15.99;55.08
69173;BME280;56280;49.662;8.408;2023-03-19T09:03:12;100566.97;;;16.30;54.51
69173;BME280;56280;49.662;8.408;2023-03-19T09:05:37;100584.06;;;16.63;52.86
69173;BME280;56280;49.662;8.408;2023-03-19T09:08:04;100590.59;;;16.69;51.88
69173;BME280;56280;49.662;8.408;2023-03-19T09:10:29;100597.97;;;17.09;50.64
69173;BME280;56280;49.662;8.408;2023-03-19T09:12:55;100599.50;;;17.28;49.80
69173;BME280;56280;49.662;8.408;2023-03-19T09:15:20;100605.44;;;17.48;48.90
69173;BME280;56280;49.662;8.408;2023-03-19T09:17:45;100598.03;;;17.50;49.11
69173;BME280;56280;49.662;8.408;2023-03-19T09:20:11;100583.59;;;17.84;48.07
69173;BME280;56280;49.662;8.408;2023-03-19T09:22:37;100589.97;;;17.92;47.28
69173;BME280;56280;49.662;8.408;2023-03-19T09:25:02;100592.16;;;17.96;47.48
69173;BME280;56280;49.662;8.408;2023-03-19T09:27:28;100589.09;;;17.25;49.27
69173;BME280;56280;49.662;8.408;2023-03-19T09:29:53;100588.09;;;17.10;49.01
69173;BME280;56280;49.662;8.408;2023-03-19T09:32:19;100601.88;;;17.56;47.80
69173;BME280;56280;49.662;8.408;2023-03-19T09:34:45;100587.59;;;17.72;48.65
69173;BME280;56280;49.662;8.408;2023-03-19T09:37:11;100582.56;;;18.10;47.55
69173;BME280;56280;49.662;8.408;2023-03-19T09:39:37;100603.00;;;18.36;46.28
69173;BME280;56280;49.662;8.408;2023-03-19T09:45:01;100604.53;;;18.30;45.40
69173;BME280;56280;49.662;8.408;2023-03-19T09:47:33;100588.63;;;18.60;44.78
69173;BME280;56280;49.662;8.408;2023-03-19T09:50:04;100611.13;;;17.86;45.25
69173;BME280;56280;49.662;8.408;2023-03-19T09:55:09;100605.72;;;18.28;44.13
69173;BME280;56280;49.662;8.408;2023-03-19T09:57:39;100523.97;;;17.89;44.35
69173;BME280;56280;49.662;8.408;2023-03-19T10:00:25;100604.69;;;18.76;42.86
69173;BME280;56280;49.662;8.408;2023-03-19T10:17:00;100571.72;;;18.35;42.89
69173;BME280;56280;49.662;8.408;2023-03-19T10:19:45;100605.03;;;18.26;42.34
69173;BME280;56280;49.662;8.408;2023-03-19T10:22:15;100592.16;;;17.96;43.19
69173;BME280;56280;49.662;8.408;2023-03-19T10:24:44;100581.06;;;17.83;43.07
69173;BME280;56280;49.662;8.408;2023-03-19T10:27:15;100593.91;;;18.37;42.73
69173;BME280;56280;49.662;8.408;2023-03-19T10:29:42;100568.00;;;18.44;42.23
69173;BME280;56280;49.662;8.408;2023-03-19T10:32:20;100592.00;;;18.54;41.91
69173;BME280;56280;49.662;8.408;2023-03-19T10:34:52;100584.81;;;18.46;42.52
69173;BME280;56280;49.662;8.408;2023-03-19T10:37:23;100586.25;;;18.65;42.10
69173;BME280;56280;49.662;8.408;2023-03-19T10:39:52;100542.84;;;18.29;42.81
69173;BME280;56280;49.662;8.408;2023-03-19T10:43:12;100581.44;;;18.52;42.38
69173;BME280;56280;49.662;8.408;2023-03-19T10:45:31;100564.25;;;18.62;40.89
69173;BME280;56280;49.662;8.408;2023-03-19T10:47:59;100570.41;;;18.70;39.98
69173;BME280;56280;49.662;8.408;2023-03-19T10:53:28;100581.00;;;18.32;41.13
69173;BME280;56280;49.662;8.408;2023-03-19T10:58:33;100577.34;;;18.65;40.06
69173;BME280;56280;49.662;8.408;2023-03-19T11:01:06;100563.53;;;18.28;41.82
69173;BME280;56280;49.662;8.408;2023-03-19T11:03:39;100551.94;;;18.28;41.85
69173;BME280;56280;49.662;8.408;2023-03-19T11:06:34;100579.28;;;18.87;42.02
69173;BME280;56280;49.662;8.408;2023-03-19T11:09:11;100553.94;;;19.05;40.56
69173;BME280;56280;49.662;8.408;2023-03-19T11:11:48;100574.91;;;19.41;40.92
69173;BME280;56280;49.662;8.408;2023-03-19T11:14:33;100580.50;;;19.54;40.53
69173;BME280;56280;49.662;8.408;2023-03-19T11:17:06;100580.34;;;19.79;39.26
69173;BME280;56280;49.662;8.408;2023-03-19T11:19:42;100561.13;;;19.82;39.54
69173;BME280;56280;49.662;8.408;2023-03-19T11:22:37;100571.47;;;20.23;37.70
69173;BME280;56280;49.662;8.408;2023-03-19T11:27:56;100570.50;;;20.01;39.27
69173;BME280;56280;49.662;8.408;2023-03-19T11:30:22;100548.66;;;20.11;39.43
69173;BME280;56280;49.662;8.408;2023-03-19T11:33:15;100529.41;;;19.99;38.53
69173;BME280;56280;49.662;8.408;2023-03-19T11:41:48;100563.53;;;20.36;37.68
69173;BME280;56280;49.662;8.408;2023-03-19T11:52:41;100535.28;;;20.02;37.51
69173;BME280;56280;49.662;8.408;2023-03-19T11:55:29;100548.28;;;20.14;37.18
69173;BME280;56280;49.662;8.408;2023-03-19T11:58:28;100563.66;;;20.13;38.56
69173;BME280;56280;49.662;8.408;2023-03-19T12:01:19;100562.22;;;20.02;37.53
69173;BME280;56280;49.662;8.408;2023-03-19T12:04:01;100544.31;;;20.10;36.47
69173;BME280;56280;49.662;8.408;2023-03-19T12:06:50;100561.50;;;20.09;37.15
69173;BME280;56280;49.662;8.408;2023-03-19T12:12:40;100564.75;;;19.66;37.89
69173;BME280;56280;49.662;8.408;2023-03-19T12:18:01;100568.28;;;18.97;38.94
69173;BME280;56280;49.662;8.408;2023-03-19T12:20:40;100568.66;;;18.94;38.68
69173;BME280;56280;49.662;8.408;2023-03-19T12:23:20;100574.66;;;18.65;40.27
69173;BME280;56280;49.662;8.408;2023-03-19T12:25:58;100574.31;;;19.30;39.88
69173;BME280;56280;49.662;8.408;2023-03-19T12:28:31;100585.72;;;19.09;42.67
69173;BME280;56280;49.662;8.408;2023-03-19T12:36:06;100608.44;;;17.70;49.47
69173;BME280;56280;49.662;8.408;2023-03-19T12:38:46;100606.25;;;17.65;50.12
69173;BME280;56280;49.662;8.408;2023-03-19T12:41:27;100601.22;;;17.62;50.91
69173;BME280;56280;49.662;8.408;2023-03-19T12:44:04;100594.19;;;17.70;50.85
69173;BME280;56280;49.662;8.408;2023-03-19T12:46:37;100597.34;;;17.40;51.33
69173;BME280;56280;49.662;8.408;2023-03-19T12:49:11;100611.88;;;17.05;52.52
69173;BME280;56280;49.662;8.408;2023-03-19T12:51:42;100601.66;;;17.00;52.15
69173;BME280;56280;49.662;8.408;2023-03-19T12:54:32;100599.97;;;16.99;52.96
69173;BME280;56280;49.662;8.408;2023-03-19T12:57:08;100619.03;;;17.47;52.77
69173;BME280;56280;49.662;8.408;2023-03-19T13:05:46;100619.78;;;16.72;55.89
69173;BME280;56280;49.662;8.408;2023-03-19T13:08:40;100568.06;;;16.53;56.06
69173;BME280;56280;49.662;8.408;2023-03-19T13:11:12;100581.56;;;16.35;57.24
69173;BME280;56280;49.662;8.408;2023-03-19T13:16:16;100628.16;;;16.34;60.34
69173;BME280;56280;49.662;8.408;2023-03-19T13:18:58;100625.09;;;16.29;60.81
69173;BME280;56280;49.662;8.408;2023-03-19T13:21:29;100609.53;;;16.07;61.14
69173;BME280;56280;49.662;8.408;2023-03-19T13:24:14;100633.59;;;15.98;62.48
69173;BME280;56280;49.662;8.408;2023-03-19T13:26:41;100634.81;;;16.04;62.16
69173;BME280;56280;49.662;8.408;2023-03-19T13:29:20;100628.25;;;15.62;63.73
69173;BME280;56280;49.662;8.408;2023-03-19T13:31:46;100635.22;;;15.91;62.99
69173;BME280;56280;49.662;8.408;2023-03-19T13:36:41;100653.50;;;15.60;63.64
69173;BME280;56280;49.662;8.408;2023-03-19T13:39:14;100626.63;;;15.52;64.78
69173;BME280;56280;49.662;8.408;2023-03-19T13:44:32;100651.97;;;15.57;66.65
69173;BME280;56280;49.662;8.408;2023-03-19T14:00:56;100641.81;;;15.43;68.86
69173;BME280;56280;49.662;8.408;2023-03-19T14:03:31;100630.16;;;15.70;68.81
69173;BME280;56280;49.662;8.408;2023-03-19T14:05:58;100639.13;;;15.79;68.74
69173;BME280;56280;49.662;8.408;2023-03-19T14:08:42;100615.84;;;15.61;68.32
69173;BME280;56280;49.662;8.408;2023-03-19T14:11:09;100628.78;;;15.66;68.51
69173;BME280;56280;49.662;8.408;2023-03-19T14:13:42;100621.81;;;15.73;68.98
69173;BME280;56280;49.662;8.408;2023-03-19T14:16:23;100588.94;;;15.45;68.78
69173;BME280;56280;49.662;8.408;2023-03-19T14:18:54;100598.13;;;15.78;67.93
69173;BME280;56280;49.662;8.408;2023-03-19T14:21:40;100610.19;;;16.00;66.18